createdAt,value
2022-09-12T00:01:26.622Z,12.00
2022-09-12T00:03:56.739Z,11.90
2022-09-12T00:06:28.378Z,11.90
2022-09-12T00:08:58.687Z,11.80
2022-09-12T00:11:27.623Z,11.80
2022-09-12T00:14:02.091Z,11.70
2022-09-12T00:16:33.152Z,11.60
2022-09-12T00:19:01.442Z,11.60
2022-09-12T00:21:30.282Z,11.60
2022-09-12T00:23:58.580Z,11.60
2022-09-12T00:26:27.076Z,11.60
2022-09-12T00:28:55.567Z,11.60
2022-09-12T00:31:28.140Z,11.50
2022-09-12T00:34:00.708Z,11.60
2022-09-12T00:36:30.511Z,11.60
2022-09-12T00:38:58.997Z,11.60
2022-09-12T00:41:30.511Z,11.60
2022-09-12T00:44:00.887Z,11.60
2022-09-12T00:46:37.070Z,11.60
2022-09-12T00:49:13.684Z,11.60
2022-09-12T00:51:45.888Z,11.60
2022-09-12T00:54:18.822Z,11.60
2022-09-12T00:56:49.620Z,11.60
2022-09-12T00:59:25.467Z,11.60
2022-09-12T01:01:56.075Z,11.60
2022-09-12T01:04:27.737Z,11.50
2022-09-12T01:06:58.906Z,11.40
2022-09-12T01:09:27.143Z,11.30
2022-09-12T01:11:56.320Z,11.30
2022-09-12T01:14:24.720Z,11.30
2022-09-12T01:16:54.574Z,11.30
2022-09-12T01:20:04.880Z,11.20
2022-09-12T01:23:02.035Z,11.20
2022-09-12T01:25:40.388Z,11.20
2022-09-12T01:28:40.121Z,11.10
2022-09-12T01:31:16.840Z,11.00
2022-09-12T01:34:01.454Z,11.00
2022-09-12T01:36:45.986Z,11.00
2022-09-12T01:39:29.139Z,11.00
2022-09-12T01:42:11.258Z,11.10
2022-09-12T01:44:49.383Z,11.10
2022-09-12T01:47:24.083Z,11.10
2022-09-12T01:50:01.212Z,11.10
2022-09-12T01:52:35.693Z,11.00
2022-09-12T01:55:12.877Z,11.10
2022-09-12T01:57:50.323Z,11.10
2022-09-12T02:00:18.742Z,11.00
2022-09-12T02:02:54.970Z,11.00
2022-09-12T02:05:29.563Z,11.00
2022-09-12T02:08:04.833Z,11.00
2022-09-12T02:10:36.258Z,10.90
2022-09-12T02:13:14.655Z,10.80
2022-09-12T02:15:48.107Z,10.80
2022-09-12T02:18:19.783Z,10.80
2022-09-12T02:20:50.245Z,10.90
2022-09-12T02:23:26.482Z,10.90
2022-09-12T02:25:58.866Z,11.00
2022-09-12T02:28:31.420Z,11.10
2022-09-12T02:31:10.786Z,11.20
2022-09-12T02:33:50.565Z,11.40
2022-09-12T02:36:29.877Z,11.50
2022-09-12T02:38:58.349Z,11.70
2022-09-12T02:41:26.735Z,11.90
2022-09-12T02:43:55.849Z,12.00
2022-09-12T02:46:28.314Z,12.20
2022-09-12T02:48:58.830Z,12.20
2022-09-12T02:51:27.917Z,12.20
2022-09-12T02:53:56.578Z,12.30
2022-09-12T02:56:28.752Z,12.40
2022-09-12T02:59:00.616Z,12.30
2022-09-12T03:01:52.062Z,12.20
2022-09-12T03:04:49.420Z,12.30
2022-09-12T03:07:30.072Z,12.40
2022-09-12T03:10:05.392Z,12.40
2022-09-12T03:12:48.958Z,12.40
2022-09-12T03:15:33.137Z,12.50
2022-09-12T03:18:12.970Z,12.50
2022-09-12T03:20:53.215Z,12.50
2022-09-12T03:23:30.267Z,12.50
2022-09-12T03:26:04.239Z,12.40
2022-09-12T03:28:34.569Z,12.20
2022-09-12T03:31:13.666Z,12.10
2022-09-12T03:33:41.973Z,12.00
2022-09-12T03:36:18.399Z,11.90
2022-09-12T03:38:46.875Z,11.90
2022-09-12T03:41:15.267Z,11.80
2022-09-12T03:43:43.533Z,11.90
2022-09-12T03:46:12.331Z,11.90
2022-09-12T03:48:40.591Z,12.00
2022-09-12T03:51:12.535Z,12.00
2022-09-12T03:53:40.771Z,12.10
2022-09-12T03:56:12.084Z,12.10
2022-09-12T03:58:41.000Z,12.10
2022-09-12T04:01:12.823Z,12.10
2022-09-12T04:03:41.716Z,12.10
2022-09-12T04:06:13.964Z,12.10
2022-09-12T04:08:43.321Z,12.10
2022-09-12T04:11:13.854Z,12.00
2022-09-12T04:13:44.666Z,12.00
2022-09-12T04:16:14.141Z,11.90
2022-09-12T04:18:42.856Z,11.90
2022-09-12T04:21:15.517Z,11.90
2022-09-12T04:23:44.607Z,11.80
2022-09-12T04:26:13.842Z,11.80
2022-09-12T04:28:43.012Z,11.70
2022-09-12T04:31:15.692Z,11.70
2022-09-12T04:33:44.553Z,11.70
2022-09-12T04:36:17.469Z,11.60
2022-09-12T04:38:48.290Z,11.60
2022-09-12T04:41:19.282Z,11.50
2022-09-12T04:43:49.360Z,11.60
2022-09-12T04:46:20.386Z,11.60
2022-09-12T04:48:53.267Z,11.70
2022-09-12T04:51:28.821Z,11.90
2022-09-12T04:53:59.240Z,12.00
2022-09-12T04:56:28.978Z,12.20
2022-09-12T04:59:00.267Z,12.30
2022-09-12T05:01:30.953Z,12.30
2022-09-12T05:04:00.976Z,12.30
2022-09-12T05:06:33.194Z,12.40
2022-09-12T05:09:02.064Z,12.50
2022-09-12T05:12:02.120Z,12.50
2022-09-12T05:14:21.313Z,12.50
2022-09-12T05:16:49.938Z,12.60
2022-09-12T05:19:18.561Z,12.60
2022-09-12T05:21:48.242Z,12.70
2022-09-12T05:24:16.767Z,12.70
2022-09-12T05:26:45.307Z,12.80
2022-09-12T05:29:13.643Z,12.80
2022-09-12T05:31:41.923Z,12.80
2022-09-12T05:34:11.196Z,12.80
2022-09-12T05:36:39.679Z,12.90
2022-09-12T05:39:09.560Z,12.90
2022-09-12T05:41:38.002Z,12.90
2022-09-12T05:44:08.244Z,12.90
2022-09-12T05:46:42.039Z,13.00
2022-09-12T05:49:13.192Z,13.00
2022-09-12T05:51:42.955Z,13.00
2022-09-12T05:54:17.005Z,13.10
2022-09-12T05:56:46.025Z,13.10
2022-09-12T05:59:17.102Z,13.20
2022-09-12T06:01:45.821Z,13.20
2022-09-12T06:04:14.488Z,13.20
2022-09-12T06:06:45.600Z,13.30
2022-09-12T06:09:16.528Z,13.40
2022-09-12T06:11:46.184Z,13.40
2022-09-12T06:14:17.582Z,13.50
2022-09-12T06:16:47.171Z,13.50
2022-09-12T06:19:17.606Z,13.70
2022-09-12T06:21:47.641Z,13.70
2022-09-12T06:24:17.759Z,13.80
2022-09-12T06:26:47.476Z,13.90
2022-09-12T06:29:17.079Z,13.90
2022-09-12T06:31:45.805Z,14.00
2022-09-12T06:34:16.887Z,14.00
2022-09-12T06:36:46.211Z,14.00
2022-09-12T06:39:18.463Z,14.00
2022-09-12T06:41:47.618Z,14.00
2022-09-12T06:44:19.402Z,14.00
2022-09-12T06:46:48.028Z,14.00
2022-09-12T06:49:17.645Z,14.10
2022-09-12T06:51:45.958Z,14.10
2022-09-12T06:54:17.904Z,14.10
2022-09-12T06:56:46.445Z,14.20
2022-09-12T06:59:14.779Z,14.20
2022-09-12T07:01:43.449Z,14.30
2022-09-12T07:04:11.942Z,14.30
2022-09-12T07:06:42.924Z,14.40
2022-09-12T07:09:14.034Z,14.40
2022-09-12T07:11:44.096Z,14.50
2022-09-12T07:14:15.014Z,14.50
2022-09-12T07:16:43.855Z,14.50
2022-09-12T07:19:12.649Z,14.60
2022-09-12T07:21:41.458Z,14.60
2022-09-12T07:24:10.865Z,14.60
2022-09-12T07:26:42.075Z,14.60
2022-09-12T07:32:06.835Z,14.70
2022-09-12T07:34:36.788Z,14.70
2022-09-12T07:37:05.145Z,14.70
2022-09-12T07:39:33.536Z,14.80
2022-09-12T07:42:01.834Z,14.90
2022-09-12T07:44:31.447Z,15.10
2022-09-12T07:46:59.775Z,15.30
2022-09-12T07:49:28.109Z,15.30
2022-09-12T07:51:56.436Z,15.40
2022-09-12T07:54:24.806Z,15.50
2022-09-12T07:56:53.060Z,15.60
2022-09-12T07:59:48.387Z,15.60
2022-09-12T08:02:17.543Z,15.70
2022-09-12T08:04:48.064Z,15.90
2022-09-12T08:07:18.404Z,16.20
2022-09-12T08:09:47.380Z,16.30
2022-09-12T08:12:16.649Z,16.40
2022-09-12T08:14:45.059Z,16.60
2022-09-12T08:17:14.713Z,16.90
2022-09-12T08:19:43.682Z,17.00
2022-09-12T08:22:12.284Z,17.00
2022-09-12T08:24:40.690Z,17.20
2022-09-12T08:27:09.550Z,17.40
2022-09-12T08:29:37.722Z,17.60
2022-09-12T08:32:06.206Z,17.80
2022-09-12T08:34:35.828Z,18.20
2022-09-12T08:37:04.178Z,18.30
2022-09-12T08:39:33.129Z,18.50
2022-09-12T08:42:04.219Z,18.70
2022-09-12T08:45:03.697Z,18.90
2022-09-12T08:47:35.687Z,19.10
2022-09-12T08:50:19.229Z,19.10
2022-09-12T08:52:58.581Z,19.20
2022-09-12T08:55:34.919Z,19.20
2022-09-12T08:58:12.145Z,19.20
2022-09-12T09:00:59.510Z,19.30
2022-09-12T09:04:01.861Z,19.40
2022-09-12T09:07:01.829Z,19.50
2022-09-12T09:09:44.053Z,19.60
2022-09-12T09:12:25.101Z,19.70
2022-09-12T09:15:34.573Z,19.80
2022-09-12T09:18:11.794Z,20.00
2022-09-12T09:20:47.769Z,20.10
2022-09-12T09:23:24.707Z,20.00
2022-09-12T09:26:00.366Z,20.00
2022-09-12T09:28:35.953Z,20.20
2022-09-12T09:31:04.571Z,20.40
2022-09-12T09:33:36.388Z,20.40
2022-09-12T09:36:16.632Z,20.50
2022-09-12T09:38:51.276Z,20.70
2022-09-12T09:41:38.798Z,21.00
2022-09-12T09:46:36.704Z,21.10
2022-09-12T09:49:06.984Z,21.30
2022-09-12T09:51:38.239Z,21.50
2022-09-12T09:54:19.268Z,21.70
2022-09-12T09:56:47.645Z,21.80
2022-09-12T09:59:19.808Z,21.80
2022-09-12T10:01:51.535Z,21.90
2022-09-12T10:04:22.465Z,22.00
2022-09-12T10:06:54.384Z,22.10
2022-09-12T10:09:27.452Z,22.20
2022-09-12T10:11:57.685Z,22.30
2022-09-12T10:14:38.998Z,22.30
2022-09-12T10:17:34.154Z,22.20
2022-09-12T10:20:20.548Z,22.20
2022-09-12T10:22:50.639Z,22.40
2022-09-12T10:25:21.591Z,22.50
2022-09-12T10:27:56.466Z,22.70
2022-09-12T10:30:28.320Z,22.80
2022-09-12T10:33:07.453Z,22.90
2022-09-12T10:35:48.279Z,22.90
2022-09-12T10:38:25.710Z,23.20
2022-09-12T10:41:02.043Z,23.20
2022-09-12T10:43:37.312Z,23.20
2022-09-12T10:46:28.348Z,23.30
2022-09-12T10:49:22.267Z,23.20
2022-09-12T10:51:51.394Z,23.30
2022-09-12T10:54:23.013Z,23.30
2022-09-12T10:57:44.712Z,23.40
2022-09-12T11:00:18.225Z,23.70
2022-09-12T11:03:05.183Z,23.80
2022-09-12T11:05:53.965Z,23.70
2022-09-12T11:08:45.358Z,23.70
2022-09-12T11:11:37.334Z,23.80
2022-09-12T11:14:32.330Z,23.90
2022-09-12T11:17:13.390Z,24.00
2022-09-12T11:20:34.398Z,23.80
2022-09-12T11:24:06.302Z,24.10
2022-09-12T11:27:02.297Z,24.30
2022-09-12T11:29:49.549Z,24.30
2022-09-12T11:33:07.744Z,24.50
2022-09-12T11:35:41.631Z,24.40
2022-09-12T11:38:49.030Z,24.30
2022-09-12T11:41:25.103Z,24.40
2022-09-12T11:43:59.627Z,24.50
2022-09-12T11:46:36.213Z,24.70
2022-09-12T11:49:17.906Z,24.90
2022-09-12T11:51:52.575Z,24.90
2022-09-12T11:54:28.004Z,25.00
2022-09-12T11:57:17.220Z,24.90
2022-09-12T11:59:53.132Z,25.10
2022-09-12T12:02:29.005Z,25.20
2022-09-12T12:05:06.253Z,25.20
2022-09-12T12:07:45.567Z,25.20
2022-09-12T12:10:31.549Z,25.00
2022-09-12T12:13:02.020Z,25.10
2022-09-12T12:15:31.258Z,25.20
2022-09-12T12:18:07.656Z,25.20
2022-09-12T12:20:36.396Z,25.30
2022-09-12T12:23:05.485Z,25.40
2022-09-12T12:25:53.658Z,25.60
2022-09-12T12:29:01.042Z,25.30
2022-09-12T12:31:29.806Z,25.30
2022-09-12T12:34:24.060Z,25.50
2022-09-12T12:36:52.376Z,25.40
2022-09-12T12:40:01.183Z,25.30
2022-09-12T12:43:31.877Z,25.30
2022-09-12T12:46:16.039Z,25.20
2022-09-12T12:48:59.796Z,25.20
2022-09-12T12:51:41.277Z,25.10
2022-09-12T12:54:43.511Z,25.10
2022-09-12T12:57:33.094Z,24.90
2022-09-12T13:00:06.231Z,24.80
2022-09-12T13:02:38.445Z,24.70
2022-09-12T13:05:18.729Z,24.70
2022-09-12T13:07:54.644Z,24.80
2022-09-12T13:10:29.358Z,24.80
2022-09-12T13:12:59.897Z,24.80
2022-09-12T13:15:57.479Z,24.70
2022-09-12T13:18:29.399Z,24.60
2022-09-12T13:21:10.204Z,24.60
2022-09-12T13:23:40.816Z,24.50
2022-09-12T13:26:12.849Z,24.40
2022-09-12T13:28:41.415Z,24.40
2022-09-12T13:31:18.116Z,24.50
2022-09-12T13:33:50.059Z,24.40
2022-09-12T13:36:43.434Z,24.30
2022-09-12T13:39:23.028Z,24.20
2022-09-12T13:42:37.499Z,24.30
2022-09-12T13:45:12.934Z,24.30
2022-09-12T13:47:44.164Z,24.30
2022-09-12T13:50:20.781Z,24.30
2022-09-12T13:52:54.857Z,24.30
2022-09-12T13:55:32.241Z,24.40
2022-09-12T13:58:02.975Z,24.40
2022-09-12T14:00:34.935Z,24.40
2022-09-12T14:03:38.744Z,24.50
2022-09-12T14:06:08.473Z,24.40
2022-09-12T14:08:41.621Z,24.30
2022-09-12T14:11:13.251Z,24.20
2022-09-12T14:13:41.659Z,24.30
2022-09-12T14:16:12.464Z,24.30
2022-09-12T14:18:45.100Z,24.30
2022-09-12T14:21:35.194Z,24.30
2022-09-12T14:24:06.950Z,24.20
2022-09-12T14:26:40.547Z,24.20
2022-09-12T14:29:09.449Z,24.20
2022-09-12T14:31:39.730Z,24.30
2022-09-12T14:34:14.082Z,24.30
2022-09-12T14:36:47.103Z,24.30
2022-09-12T14:39:27.776Z,24.20
2022-09-12T14:42:05.662Z,24.30
2022-09-12T14:44:35.534Z,24.30
2022-09-12T14:47:16.259Z,24.20
2022-09-12T14:49:44.703Z,24.30
2022-09-12T14:52:28.773Z,24.20
2022-09-12T14:54:59.854Z,24.20
2022-09-12T14:57:40.911Z,24.20
2022-09-12T15:00:23.217Z,24.20
2022-09-12T15:02:52.478Z,24.20
2022-09-12T15:05:26.686Z,24.10
2022-09-12T15:07:59.010Z,24.10
2022-09-12T15:10:31.503Z,24.00
2022-09-12T15:13:23.751Z,24.00
2022-09-12T15:15:54.527Z,23.90
2022-09-12T15:18:25.959Z,23.80
2022-09-12T15:20:57.820Z,23.80
2022-09-12T15:23:36.007Z,23.70
2022-09-12T15:26:05.815Z,23.70
2022-09-12T15:28:36.061Z,23.60
2022-09-12T15:31:12.665Z,23.70
2022-09-12T15:33:41.236Z,23.70
2022-09-12T15:36:17.703Z,23.70
2022-09-12T15:38:46.585Z,23.70
2022-09-12T15:41:18.318Z,23.70
2022-09-12T15:43:49.180Z,23.70
2022-09-12T15:46:19.548Z,23.80
2022-09-12T15:48:48.239Z,23.70
2022-09-12T15:51:20.137Z,23.70
2022-09-12T15:53:50.242Z,23.70
2022-09-12T15:56:21.181Z,23.70
2022-09-12T15:59:00.063Z,23.60
2022-09-12T16:01:30.166Z,23.60
2022-09-12T16:03:59.008Z,23.60
2022-09-12T16:06:28.029Z,23.60
2022-09-12T16:08:56.364Z,23.60
2022-09-12T16:11:26.952Z,23.50
2022-09-12T16:13:58.226Z,23.60
2022-09-12T16:16:26.618Z,23.50
2022-09-12T16:18:55.020Z,23.50
2022-09-12T16:21:23.269Z,23.40
2022-09-12T16:23:52.246Z,23.40
2022-09-12T16:26:23.251Z,23.30
2022-09-12T16:28:57.586Z,23.20
2022-09-12T16:31:26.733Z,23.20
2022-09-12T16:33:55.058Z,23.20
2022-09-12T16:36:24.299Z,23.20
2022-09-12T16:38:54.731Z,23.20
2022-09-12T16:41:26.365Z,23.30
2022-09-12T16:43:56.590Z,23.30
2022-09-12T16:46:28.682Z,23.30
2022-09-12T16:48:58.817Z,23.20
2022-09-12T16:51:29.590Z,23.10
2022-09-12T16:53:57.904Z,23.10
2022-09-12T16:56:26.643Z,23.00
2022-09-12T16:58:56.769Z,22.90
2022-09-12T17:01:27.487Z,22.80
2022-09-12T17:03:57.004Z,22.90
2022-09-12T17:06:26.675Z,22.80
2022-09-12T17:08:56.698Z,22.80
2022-09-12T17:11:27.690Z,22.80
2022-09-12T17:14:04.929Z,22.70
2022-09-12T17:16:35.388Z,22.60
2022-09-12T17:19:03.932Z,22.60
2022-09-12T17:21:32.328Z,22.50
2022-09-12T17:24:00.822Z,22.40
2022-09-12T17:26:29.158Z,22.30
2022-09-12T17:28:58.886Z,22.30
2022-09-12T17:31:27.736Z,22.20
2022-09-12T17:33:58.977Z,22.10
2022-09-12T17:36:29.120Z,22.00
2022-09-12T17:38:57.678Z,21.80
2022-09-12T17:41:29.323Z,21.80
2022-09-12T17:44:01.367Z,21.70
2022-09-12T17:46:34.943Z,21.60
2022-09-12T17:49:06.233Z,21.50
2022-09-12T17:51:35.282Z,21.50
2022-09-12T17:54:06.817Z,21.30
2022-09-12T17:56:37.134Z,21.30
2022-09-12T17:59:08.851Z,21.20
2022-09-12T18:01:54.473Z,21.00
2022-09-12T18:04:23.306Z,21.00
2022-09-12T18:06:51.612Z,20.80
2022-09-12T18:09:23.310Z,20.80
2022-09-12T18:11:52.739Z,20.70
2022-09-12T18:14:22.732Z,20.60
2022-09-12T18:16:52.379Z,20.50
2022-09-12T18:19:20.800Z,20.40
2022-09-12T18:21:49.120Z,20.30
2022-09-12T18:24:17.536Z,20.20
2022-09-12T18:26:46.138Z,20.00
2022-09-12T18:29:16.915Z,20.00
2022-09-12T18:31:47.766Z,20.00
2022-09-12T18:34:16.693Z,19.80
2022-09-12T18:36:47.886Z,19.80
2022-09-12T18:39:17.159Z,19.70
2022-09-12T18:41:46.456Z,19.70
2022-09-12T18:44:15.025Z,19.60
2022-09-12T18:46:43.449Z,19.50
2022-09-12T18:49:13.228Z,19.50
2022-09-12T18:51:41.972Z,19.50
2022-09-12T18:54:15.329Z,19.50
2022-09-12T18:56:45.654Z,19.40
2022-09-12T18:59:15.150Z,19.30
2022-09-12T19:01:44.390Z,19.10
2022-09-12T19:04:16.351Z,19.10
2022-09-12T19:06:47.353Z,19.00
2022-09-12T19:09:17.367Z,19.00
2022-09-12T19:11:50.055Z,19.00
2022-09-12T19:14:22.636Z,18.90
2022-09-12T19:16:52.229Z,18.80
2022-09-12T19:19:22.471Z,18.80
2022-09-12T19:21:50.850Z,18.80
2022-09-12T19:24:19.363Z,18.80
2022-09-12T19:26:47.629Z,18.70
2022-09-12T19:29:18.241Z,18.60
2022-09-12T19:31:46.925Z,18.50
2022-09-12T19:34:16.002Z,18.50
2022-09-12T19:36:46.937Z,18.40
2022-09-12T19:39:17.368Z,18.40
2022-09-12T19:41:46.338Z,18.40
2022-09-12T19:44:15.249Z,18.40
2022-09-12T19:46:43.751Z,18.30
2022-09-12T19:49:13.309Z,18.30
2022-09-12T19:51:42.089Z,18.30
2022-09-12T19:54:11.946Z,18.30
2022-09-12T19:56:40.554Z,18.30
2022-09-12T19:59:09.673Z,18.30
2022-09-12T20:01:38.171Z,18.30
2022-09-12T20:04:07.005Z,18.30
2022-09-12T20:06:35.867Z,18.30
2022-09-12T20:09:04.617Z,18.30
2022-09-12T20:11:34.271Z,18.30
2022-09-12T20:14:02.910Z,18.30
2022-09-12T20:16:33.276Z,18.30
2022-09-12T20:19:06.057Z,18.30
2022-09-12T20:21:36.157Z,18.20
2022-09-12T20:24:07.197Z,18.20
2022-09-12T20:26:36.854Z,18.20
2022-09-12T20:29:06.824Z,18.20
2022-09-12T20:31:36.365Z,18.20
2022-09-12T20:34:05.103Z,18.10
2022-09-12T20:36:33.749Z,18.00
2022-09-12T20:39:03.277Z,18.00
2022-09-12T20:41:35.373Z,18.00
2022-09-12T20:44:05.513Z,17.90
2022-09-12T20:46:33.877Z,17.90
2022-09-12T20:49:02.242Z,17.90
2022-09-12T20:51:30.694Z,17.80
2022-09-12T20:54:01.061Z,17.80
2022-09-12T20:56:31.810Z,17.80
2022-09-12T20:59:01.296Z,17.70
2022-09-12T21:01:32.425Z,17.70
2022-09-12T21:04:01.701Z,17.70
2022-09-12T21:06:30.294Z,17.70
2022-09-12T21:08:59.900Z,17.70
2022-09-12T21:11:28.824Z,17.60
2022-09-12T21:13:57.914Z,17.50
2022-09-12T21:16:26.451Z,17.40
2022-09-12T21:18:58.387Z,17.30
2022-09-12T21:21:27.934Z,17.30
2022-09-12T21:23:59.804Z,17.30
2022-09-12T21:26:28.351Z,17.20
2022-09-12T21:28:56.800Z,17.20
2022-09-12T21:31:26.641Z,17.20
2022-09-12T21:33:56.406Z,17.10
2022-09-12T21:36:25.772Z,17.00
2022-09-12T21:38:54.086Z,16.90
2022-09-12T21:41:22.364Z,16.80
2022-09-12T21:43:50.841Z,16.80
2022-09-12T21:46:19.101Z,16.80
2022-09-12T21:48:47.418Z,16.80
2022-09-12T21:51:17.027Z,16.80
2022-09-12T21:53:45.335Z,16.80
2022-09-12T21:56:13.644Z,16.80
2022-09-12T21:58:41.934Z,16.80
2022-09-12T22:01:13.231Z,16.70
2022-09-12T22:03:43.079Z,16.70
2022-09-12T22:06:11.333Z,16.60
2022-09-12T22:08:41.199Z,16.70
2022-09-12T22:11:10.859Z,16.70
2022-09-12T22:13:43.923Z,16.70
2022-09-12T22:16:12.845Z,16.50
2022-09-12T22:18:41.863Z,16.40
2022-09-12T22:21:13.790Z,16.30
2022-09-12T22:24:00.899Z,16.30
2022-09-12T22:26:30.081Z,16.20
2022-09-12T22:28:58.357Z,16.20
2022-09-12T22:31:27.113Z,16.20
2022-09-12T22:33:57.059Z,16.30
2022-09-12T22:36:30.488Z,16.30
2022-09-12T22:39:01.166Z,16.30
2022-09-12T22:41:29.749Z,16.30
2022-09-12T22:43:58.405Z,16.30
2022-09-12T22:46:27.268Z,16.30
2022-09-12T22:48:56.039Z,16.30
2022-09-12T22:51:24.408Z,16.40
2022-09-12T22:53:52.794Z,16.40
2022-09-12T22:56:22.559Z,16.30
2022-09-12T22:58:51.076Z,16.40
2022-09-12T23:01:19.549Z,16.40
2022-09-12T23:03:48.044Z,16.40
2022-09-12T23:06:16.513Z,16.40
2022-09-12T23:08:45.032Z,16.30
2022-09-12T23:11:16.284Z,16.40
2022-09-12T23:13:47.628Z,16.30
2022-09-12T23:16:18.269Z,16.30
2022-09-12T23:18:47.074Z,16.30
2022-09-12T23:21:17.648Z,16.40
2022-09-12T23:23:46.211Z,16.30
2022-09-12T23:26:17.264Z,16.30
2022-09-12T23:28:52.854Z,16.30
2022-09-12T23:31:21.959Z,16.20
2022-09-12T23:33:50.626Z,16.30
2022-09-12T23:36:18.828Z,16.30
2022-09-12T23:38:48.247Z,16.30
2022-09-12T23:41:17.927Z,16.30
2022-09-12T23:43:47.104Z,16.30
2022-09-12T23:46:19.372Z,16.40
2022-09-12T23:48:47.959Z,16.40
2022-09-12T23:51:16.261Z,16.50
2022-09-12T23:53:44.584Z,16.50
2022-09-12T23:56:12.876Z,16.50
2022-09-12T23:58:41.138Z,16.60
